Date,TemperatureHighF,TemperatureAvgF,TemperatureLowF,DewpointHighF,DewpointAvgF,DewpointLowF,HumidityHigh,HumidityAvg,HumidityLow,PressureMaxIn,PressureMinIn,WindSpeedMaxMPH,WindSpeedAvgMPH,GustSpeedMaxMPH,PrecipitationSumIn
2013-3-1,44.5,39.8,35.8,27.9,24.2,20.6,71,54,39,29.83,29.66,12,7,24,0.00
2013-3-2,39.5,35.3,30.2,24.3,19.9,17.7,75,54,43,29.84,29.75,11,7,23,0.00
2013-3-3,38.4,32.2,29.1,20.1,13.8,11.6,64,47,34,29.82,29.72,12,8,27,0.00
2013-3-4,40.8,33.9,27.6,15.1,12.8,9.0,54,42,32,29.97,29.82,14,10,28,0.00
2013-3-5,51.4,40.3,31.9,25.3,19.0,15.3,54,43,29,30.07,29.97,12,5,26,0.00
2013-3-6,44.2,40.4,37.6,32.9,27.8,22.4,75,61,46,30.02,29.89,20,13,41,0.00
2013-3-7,39.0,36.7,33.3,32.6,27.3,22.1,89,69,51,30.13,29.97,17,9,35,0.00
2013-3-8,42.3,35.1,31.4,34.8,30.3,24.7,95,83,56,30.24,30.06,11,5,22,0.00
2013-3-9,56.2,44.6,34.5,27.4,17.1,6.8,61,37,14,30.37,30.22,10,5,20,0.00
2013-3-10,47.6,41.3,34.0,32.8,29.9,26.6,79,64,51,30.44,30.35,6,3,14,0.00
2013-3-11,54.7,48.5,41.2,46.2,39.3,32.2,82,70,57,30.37,30.13,8,3,15,0.00
2013-3-12,59.7,53.9,45.3,56.9,47.4,33.8,95,79,62,30.14,29.70,13,6,25,0.00
2013-3-13,50.2,44.5,38.8,33.7,25.4,16.2,70,49,26,29.94,29.84,13,6,26,0.00
2013-3-14,41.0,35.4,30.1,20.8,5.8,-1.6,48,30,17,30.02,29.89,17,11,32,0.00
2013-3-15,49.4,39.4,30.9,25.8,13.6,2.9,49,35,26,30.03,29.76,14,8,32,0.00
2013-3-16,43.3,36.7,33.5,29.7,22.0,12.5,84,57,36,29.96,29.82,9,3,19,0.00
2013-3-17,37.7,33.9,29.2,27.4,13.0,4.7,74,44,27,30.35,29.96,11,6,23,0.00
2013-3-18,35.6,31.9,27.7,33.3,15.4,-0.9,100,55,27,30.45,30.06,12,6,26,0.00
2013-3-19,48.9,38.9,33.4,35.7,32.0,13.1,100,79,33,30.05,29.75,10,6,26,0.00
2013-3-20,45.9,39.9,34.2,16.0,12.1,9.0,45,32,22,29.94,29.83,15,8,32,0.00
2013-3-21,39.5,34.5,31.0,26.2,11.5,3.3,77,40,24,29.89,29.68,10,6,21,0.00
2013-3-22,41.3,35.8,30.3,17.9,11.1,5.1,50,36,27,29.94,29.79,15,8,28,0.00
2013-3-23,45.3,39.2,33.8,18.3,13.6,9.6,50,36,25,29.99,29.88,15,9,31,0.00
2013-3-24,46.0,40.5,34.8,22.6,15.1,11.1,43,36,27,30.00,29.75,11,5,23,0.00
2013-3-25,44.8,38.4,34.2,34.0,27.4,19.8,87,66,41,29.76,29.53,14,6,29,0.00
2013-3-26,50.4,43.9,37.1,30.5,24.2,16.8,76,49,27,29.92,29.64,11,5,22,0.00
2013-3-27,51.8,43.8,36.1,27.0,21.1,13.0,56,42,21,30.03,29.91,14,7,26,0.00
2013-3-28,49.3,44.0,38.0,28.5,24.6,20.6,60,47,33,30.16,30.02,11,6,23,0.00
2013-3-29,54.7,47.4,41.1,25.9,22.8,18.7,53,39,25,30.20,30.11,12,5,26,0.00
2013-3-30,59.1,49.9,38.2,26.0,18.4,6.9,57,32,13,30.22,30.11,10,4,22,0.00
2013-3-31,56.4,48.5,38.2,46.0,29.7,15.0,94,52,23,30.17,29.73,8,3,19,0.00